Time;durP1;ratioP1;P1;durP2;ratioP2;P2;SDS_P1;SDS_P2;PMS_P1;PMS_P2;Temp;Humidity;BMP_temperature;BMP_pressure;BME280_temperature;BME280_humidity;BME280_pressure;Samples;Min_cycle;Max_cycle;Signal;HPM_P1;HPM_P2
2021/04/04 00:01:49;;;;;;;;;;;14.20;53.20;;;;;;5054213;28;75709;-68
2021/04/04 00:04:15;;;;;;;;;;;14.20;53.00;;;;;;5052046;28;74709;-65
2021/04/04 00:06:40;;;;;;;;;;;14.20;52.60;;;;;;5053313;28;75124;-67
2021/04/04 00:09:06;;;;;;;;;;;14.20;51.40;;;;;;5053723;28;75227;-68
2021/04/04 00:11:32;;;;;;;;;;;14.20;51.00;;;;;;5053771;28;74591;-68
2021/04/04 00:13:57;;;;;;;;;;;14.20;50.00;;;;;;5053437;28;75109;-67
2021/04/04 00:16:23;;;;;;;;;;;14.20;48.90;;;;;;5053668;28;74486;-68
2021/04/04 00:18:48;;;;;;;;;;;14.10;48.30;;;;;;5053972;28;75096;-68
2021/04/04 00:21:14;;;;;;;;;;;14.10;47.00;;;;;;5053744;28;75642;-70
2021/04/04 00:23:40;;;;;;;;;;;14.10;47.80;;;;;;5053110;27;74362;-66
2021/04/04 00:26:05;;;;;;;;;;;14.00;47.30;;;;;;5053582;28;75189;-67
2021/04/04 00:28:31;;;;;;;;;;;14.00;47.60;;;;;;5053455;28;75805;-66
2021/04/04 00:30:57;;;;;;;;;;;14.00;44.80;;;;;;5053928;28;74549;-68
2021/04/04 00:33:22;;;;;;;;;;;14.00;46.10;;;;;;5053491;28;75025;-69
2021/04/04 00:35:48;;;;;;;;;;;13.90;46.50;;;;;;5053374;28;74772;-68
2021/04/04 00:38:14;;;;;;;;;;;13.90;46.30;;;;;;5053266;28;75733;-67
2021/04/04 00:40:39;;;;;;;;;;;13.90;44.80;;;;;;5051366;28;78191;-70
2021/04/04 00:43:05;;;;;;;;;;;13.90;44.80;;;;;;5053119;28;75015;-67
2021/04/04 00:45:33;;;;;;;;;;;13.90;45.00;;;;;;5053503;28;75290;-67
2021/04/04 00:47:59;;;;;;;;;;;13.90;43.90;;;;;;5051644;28;77867;-67
2021/04/04 00:50:26;;;;;;;;;;;13.80;43.30;;;;;;5051236;28;76259;-68
2021/04/04 00:52:52;;;;;;;;;;;13.80;43.00;;;;;;5053280;28;74652;-67
2021/04/04 00:55:19;;;;;;;;;;;13.70;43.10;;;;;;5053115;28;75228;-67
2021/04/04 00:57:44;;;;;;;;;;;13.70;43.00;;;;;;5053474;28;74542;-66
2021/04/04 01:00:11;;;;;;;;;;;13.70;42.80;;;;;;5051216;28;74542;-71
2021/04/04 01:02:37;;;;;;;;;;;13.70;43.10;;;;;;5052500;28;75449;-68
2021/04/04 01:05:09;;;;;;;;;;;13.60;43.10;;;;;;5052732;28;75069;-68
2021/04/04 01:07:35;;;;;;;;;;;13.50;43.90;;;;;;5050944;28;76222;-68
2021/04/04 01:10:05;;;;;;;;;;;13.50;44.00;;;;;;5052336;27;75780;-69
2021/04/04 01:12:40;;;;;;;;;;;13.50;43.80;;;;;;5051094;28;76553;-67
2021/04/04 01:15:07;;;;;;;;;;;13.40;43.40;;;;;;5050968;28;75053;-67
2021/04/04 01:17:33;;;;;;;;;;;13.40;43.40;;;;;;5052438;28;76957;-68
2021/04/04 01:20:04;;;;;;;;;;;13.40;43.30;;;;;;5052698;28;75313;-66
2021/04/04 01:23:00;;;;;;;;;;;13.40;43.10;;;;;;5050924;28;76916;-68
2021/04/04 01:25:27;;;;;;;;;;;13.30;42.80;;;;;;5047137;28;74657;-66
2021/04/04 01:27:55;;;;;;;;;;;13.30;42.10;;;;;;5050980;28;77155;-66
2021/04/04 01:30:22;;;;;;;;;;;13.20;42.50;;;;;;5052848;28;75202;-66
2021/04/04 01:32:48;;;;;;;;;;;13.10;42.80;;;;;;5052270;28;75349;-67
2021/04/04 01:35:16;;;;;;;;;;;13.10;42.90;;;;;;5052729;28;74472;-68
2021/04/04 01:37:42;;;;;;;;;;;13.00;42.60;;;;;;5050635;28;74797;-66
2021/04/04 01:40:12;;;;;;;;;;;13.00;42.50;;;;;;5050692;28;76326;-66
2021/04/04 01:42:38;;;;;;;;;;;13.00;43.00;;;;;;5050792;28;75546;-69
2021/04/04 01:45:07;;;;;;;;;;;12.90;42.70;;;;;;5052808;28;74463;-66
2021/04/04 01:47:34;;;;;;;;;;;12.90;42.40;;;;;;5050614;28;77774;-68
2021/04/04 01:50:00;;;;;;;;;;;12.80;42.40;;;;;;5052386;28;75238;-67
2021/04/04 01:52:26;;;;;;;;;;;12.70;42.30;;;;;;5052374;28;75177;-68
2021/04/04 01:54:52;;;;;;;;;;;12.70;42.80;;;;;;5051881;28;75233;-66
2021/04/04 01:57:17;;;;;;;;;;;12.60;42.90;;;;;;5052124;28;76136;-67
2021/04/04 01:59:44;;;;;;;;;;;12.60;42.30;;;;;;5052556;28;76311;-68
2021/04/04 02:02:10;;;;;;;;;;;12.60;42.70;;;;;;5052112;28;75299;-68
2021/04/04 02:04:37;;;;;;;;;;;12.60;42.50;;;;;;5051858;28;75270;-66
2021/04/04 02:07:03;;;;;;;;;;;12.60;42.00;;;;;;5052057;28;74569;-67
2021/04/04 02:09:30;;;;;;;;;;;12.50;41.60;;;;;;5051952;28;75515;-67
2021/04/04 02:11:56;;;;;;;;;;;12.50;42.00;;;;;;5051699;28;75287;-66
2021/04/04 02:14:22;;;;;;;;;;;12.40;42.40;;;;;;5051589;28;76440;-67
2021/04/04 02:16:49;;;;;;;;;;;12.50;42.10;;;;;;5052146;28;74473;-69
2021/04/04 02:19:15;;;;;;;;;;;12.40;42.10;;;;;;5050213;28;77307;-67
2021/04/04 02:21:41;;;;;;;;;;;12.40;42.30;;;;;;5050295;27;77533;-67
2021/04/04 02:24:07;;;;;;;;;;;12.40;42.10;;;;;;5053316;28;78286;-66
2021/04/04 02:26:33;;;;;;;;;;;12.40;41.90;;;;;;5053851;28;75215;-65
2021/04/04 02:28:59;;;;;;;;;;;12.40;42.20;;;;;;5055345;28;74383;-68
2021/04/04 02:31:26;;;;;;;;;;;12.40;42.20;;;;;;5055262;28;75259;-67
2021/04/04 02:33:57;;;;;;;;;;;12.40;42.60;;;;;;5055225;28;75101;-66
2021/04/04 02:36:26;;;;;;;;;;;12.40;42.30;;;;;;5055326;28;74434;-66
2021/04/04 02:38:57;;;;;;;;;;;12.30;42.10;;;;;;5055224;28;75225;-68
2021/04/04 02:41:23;;;;;;;;;;;12.30;42.30;;;;;;5054973;28;74967;-66
2021/04/04 02:43:49;;;;;;;;;;;12.30;41.80;;;;;;5053264;28;77454;-66
2021/04/04 02:46:16;;;;;;;;;;;12.20;41.30;;;;;;5054987;28;74634;-68
2021/04/04 02:48:44;;;;;;;;;;;12.20;41.60;;;;;;5055052;28;75092;-68
2021/04/04 02:51:12;;;;;;;;;;;12.20;41.40;;;;;;5053250;28;77814;-67
2021/04/04 02:53:40;;;;;;;;;;;12.10;41.30;;;;;;5054883;28;75130;-68
2021/04/04 02:56:07;;;;;;;;;;;12.10;41.50;;;;;;5053261;28;77056;-68
2021/04/04 02:58:33;;;;;;;;;;;12.10;41.30;;;;;;5054655;28;75308;-66
2021/04/04 03:01:00;;;;;;;;;;;12.00;41.40;;;;;;5055471;28;74409;-68
2021/04/04 03:03:30;;;;;;;;;;;12.00;41.30;;;;;;5054344;27;75275;-67
2021/04/04 03:05:57;;;;;;;;;;;12.00;40.70;;;;;;5054797;28;75545;-70
2021/04/04 03:08:23;;;;;;;;;;;12.00;40.90;;;;;;5054613;28;76258;-67
2021/04/04 03:10:50;;;;;;;;;;;12.00;41.00;;;;;;5054113;28;77086;-68
2021/04/04 03:13:17;;;;;;;;;;;11.90;41.00;;;;;;5053994;28;76485;-67
2021/04/04 03:15:42;;;;;;;;;;;11.90;41.00;;;;;;5053157;28;76117;-66
2021/04/04 03:18:08;;;;;;;;;;;11.90;40.50;;;;;;5054670;28;75619;-69
2021/04/04 03:20:33;;;;;;;;;;;11.90;40.60;;;;;;5052817;28;75435;-67
2021/04/04 03:23:01;;;;;;;;;;;11.90;40.30;;;;;;5052739;28;76397;-67
2021/04/04 03:25:26;;;;;;;;;;;11.90;40.40;;;;;;5054400;28;75191;-68
2021/04/04 03:27:54;;;;;;;;;;;11.80;41.30;;;;;;5052696;28;77266;-68
2021/04/04 03:30:35;;;;;;;;;;;11.70;42.00;;;;;;5052787;28;76721;-67
2021/04/04 03:33:02;;;;;;;;;;;11.70;42.20;;;;;;5054596;27;75234;-69
2021/04/04 03:35:28;;;;;;;;;;;11.60;41.60;;;;;;5052824;28;75241;-69
2021/04/04 03:37:54;;;;;;;;;;;11.60;41.50;;;;;;5054131;28;74387;-68
2021/04/04 03:40:20;;;;;;;;;;;11.60;40.10;;;;;;5052367;28;77200;-68
2021/04/04 03:42:47;;;;;;;;;;;11.60;40.40;;;;;;5052251;28;75453;-66
2021/04/04 03:45:13;;;;;;;;;;;11.60;41.10;;;;;;5053913;28;75206;-67
2021/04/04 03:47:39;;;;;;;;;;;11.60;40.90;;;;;;5052464;28;74722;-67
2021/04/04 03:50:05;;;;;;;;;;;11.60;40.50;;;;;;5052000;28;77161;-67
2021/04/04 03:52:32;;;;;;;;;;;11.50;40.60;;;;;;5054065;28;75024;-67
2021/04/04 03:54:58;;;;;;;;;;;11.60;40.30;;;;;;5052189;27;74863;-67
2021/04/04 03:57:24;;;;;;;;;;;11.50;40.50;;;;;;5053477;27;75132;-66
2021/04/04 03:59:51;;;;;;;;;;;11.50;42.80;;;;;;5052207;28;75578;-66
2021/04/04 04:02:19;;;;;;;;;;;11.40;45.00;;;;;;5053794;28;74367;-67
2021/04/04 04:04:45;;;;;;;;;;;11.30;46.10;;;;;;5053498;28;75327;-68
2021/04/04 04:07:11;;;;;;;;;;;11.20;47.00;;;;;;5051989;28;77273;-68
2021/04/04 04:09:37;;;;;;;;;;;11.10;47.80;;;;;;5053860;28;74378;-68
2021/04/04 04:12:03;;;;;;;;;;;11.00;49.10;;;;;;5051720;28;78526;-66
2021/04/04 04:14:30;;;;;;;;;;;10.90;49.60;;;;;;5053475;28;75083;-67
2021/04/04 04:16:56;;;;;;;;;;;10.80;49.90;;;;;;5053397;28;75623;-66
2021/04/04 04:19:22;;;;;;;;;;;10.70;51.70;;;;;;5053135;28;75310;-68
2021/04/04 04:21:48;;;;;;;;;;;10.60;51.70;;;;;;5053701;28;74418;-67
2021/04/04 04:24:14;;;;;;;;;;;10.50;51.20;;;;;;5051786;28;76704;-68
2021/04/04 04:26:44;;;;;;;;;;;10.50;51.70;;;;;;5053547;28;75137;-67
2021/04/04 04:29:11;;;;;;;;;;;10.40;51.80;;;;;;5051612;28;77156;-68
2021/04/04 04:31:38;;;;;;;;;;;10.40;52.00;;;;;;5053536;28;74453;-67
2021/04/04 04:34:05;;;;;;;;;;;10.40;50.70;;;;;;5053265;28;74498;-68
2021/04/04 04:36:31;;;;;;;;;;;10.40;48.90;;;;;;5053380;28;74569;-68
2021/04/04 04:38:58;;;;;;;;;;;10.50;48.70;;;;;;5051707;28;75917;-67
2021/04/04 04:41:24;;;;;;;;;;;10.50;48.60;;;;;;5053204;28;75795;-67
2021/04/04 04:43:53;;;;;;;;;;;10.50;48.60;;;;;;5053269;28;74443;-66
2021/04/04 04:46:19;;;;;;;;;;;10.50;48.20;;;;;;5050835;28;75351;-67
2021/04/04 04:48:45;;;;;;;;;;;10.50;47.30;;;;;;5052118;28;78210;-68
2021/04/04 04:51:10;;;;;;;;;;;10.60;47.30;;;;;;5051500;28;74591;-69
2021/04/04 04:53:37;;;;;;;;;;;10.50;47.50;;;;;;5052805;28;75032;-67
2021/04/04 04:56:03;;;;;;;;;;;10.50;48.10;;;;;;5052970;28;75365;-67
2021/04/04 04:58:33;;;;;;;;;;;10.50;48.60;;;;;;5052722;28;75187;-66
2021/04/04 05:01:00;;;;;;;;;;;10.40;49.50;;;;;;5051399;28;76053;-69
2021/04/04 05:03:26;;;;;;;;;;;10.40;51.00;;;;;;5050911;28;77870;-68
2021/04/04 05:05:52;;;;;;;;;;;10.30;50.70;;;;;;5052614;28;75871;-69
2021/04/04 05:08:18;;;;;;;;;;;10.20;50.50;;;;;;5051060;28;76384;-70
2021/04/04 05:10:45;;;;;;;;;;;10.20;50.70;;;;;;5050787;28;77276;-70
2021/04/04 05:13:12;;;;;;;;;;;10.20;50.90;;;;;;5050960;28;76680;-67
2021/04/04 05:15:38;;;;;;;;;;;10.20;51.00;;;;;;5052543;28;75278;-66
2021/04/04 05:18:04;;;;;;;;;;;10.10;51.00;;;;;;5050977;28;77480;-69
2021/04/04 05:20:30;;;;;;;;;;;10.10;50.60;;;;;;5052874;28;75075;-67
2021/04/04 05:22:56;;;;;;;;;;;10.00;50.70;;;;;;5052698;28;75108;-68
2021/04/04 05:25:22;;;;;;;;;;;10.00;50.00;;;;;;5052515;28;75189;-70
2021/04/04 05:27:47;;;;;;;;;;;10.00;49.40;;;;;;5052529;28;75324;-69
2021/04/04 05:30:13;;;;;;;;;;;10.10;48.00;;;;;;5052575;28;75052;-66
2021/04/04 05:32:49;;;;;;;;;;;10.20;46.30;;;;;;5052405;28;76935;-67
2021/04/04 05:35:24;;;;;;;;;;;10.20;46.00;;;;;;5050905;28;75507;-68
2021/04/04 05:37:53;;;;;;;;;;;10.20;47.40;;;;;;5052863;28;74491;-68
2021/04/04 05:40:20;;;;;;;;;;;10.20;47.70;;;;;;5050755;28;78800;-67
2021/04/04 05:42:49;;;;;;;;;;;10.20;48.10;;;;;;5052657;28;74545;-69
2021/04/04 05:45:19;;;;;;;;;;;10.10;48.50;;;;;;5050147;28;75844;-71
2021/04/04 05:47:52;;;;;;;;;;;10.10;48.40;;;;;;5052405;28;75188;-69
2021/04/04 05:50:22;;;;;;;;;;;10.10;46.80;;;;;;5052551;28;75410;-67
2021/04/04 05:52:53;;;;;;;;;;;10.10;46.30;;;;;;5050880;28;75281;-67
2021/04/04 05:55:29;;;;;;;;;;;10.20;46.20;;;;;;5053694;28;74787;-67
2021/04/04 05:58:11;;;;;;;;;;;10.30;45.10;;;;;;5054429;28;75917;-67
2021/04/04 06:00:41;;;;;;;;;;;10.30;44.80;;;;;;5057259;28;75344;-69
2021/04/04 06:03:13;;;;;;;;;;;10.30;45.20;;;;;;5055999;28;74791;-68
2021/04/04 06:05:49;;;;;;;;;;;10.30;45.70;;;;;;5054159;28;77691;-68
2021/04/04 06:08:18;;;;;;;;;;;10.20;46.20;;;;;;5053966;28;77008;-66
2021/04/04 06:10:55;;;;;;;;;;;10.10;46.10;;;;;;5054051;28;77692;-66
2021/04/04 06:13:40;;;;;;;;;;;10.10;46.00;;;;;;5054423;28;75714;-65
2021/04/04 06:16:35;;;;;;;;;;;10.10;46.00;;;;;;5056159;27;75102;-67
2021/04/04 06:19:00;;;;;;;;;;;10.10;45.20;;;;;;5035185;28;74809;-66
2021/04/04 06:21:34;;;;;;;;;;;10.20;44.60;;;;;;5054048;28;76693;-66
2021/04/04 06:24:29;;;;;;;;;;;10.30;43.80;;;;;;5056242;28;75063;-67
2021/04/04 06:26:55;;;;;;;;;;;10.40;43.40;;;;;;5051212;28;75815;-66
2021/04/04 06:29:30;;;;;;;;;;;10.40;42.90;;;;;;5055624;28;75104;-66
2021/04/04 06:32:02;;;;;;;;;;;10.50;42.80;;;;;;5053680;28;78223;-65
2021/04/04 06:34:33;;;;;;;;;;;10.50;42.80;;;;;;5055592;28;75242;-66
2021/04/04 06:37:09;;;;;;;;;;;10.60;43.30;;;;;;5055589;28;75812;-68
2021/04/04 06:39:37;;;;;;;;;;;10.70;43.00;;;;;;5053739;28;76638;-69
2021/04/04 06:42:06;;;;;;;;;;;10.70;42.70;;;;;;5053172;28;77482;-69
2021/04/04 06:44:34;;;;;;;;;;;10.80;42.30;;;;;;5055084;28;74406;-67
2021/04/04 06:47:02;;;;;;;;;;;10.90;42.40;;;;;;5055564;28;74377;-66
2021/04/04 06:49:44;;;;;;;;;;;10.90;42.00;;;;;;5055314;28;74469;-66
2021/04/04 06:52:28;;;;;;;;;;;11.00;41.30;;;;;;5053147;28;77154;-68
2021/04/04 06:55:13;;;;;;;;;;;11.00;41.10;;;;;;5053274;28;75841;-67
2021/04/04 06:57:57;;;;;;;;;;;11.10;41.60;;;;;;5053806;28;75708;-74
2021/04/04 07:00:24;;;;;;;;;;;11.20;41.10;;;;;;5055513;27;75167;-75
2021/04/04 07:02:56;;;;;;;;;;;11.20;40.40;;;;;;5053759;28;75233;-73
2021/04/04 07:05:22;;;;;;;;;;;11.30;40.60;;;;;;5055422;28;75175;-74
2021/04/04 07:07:54;;;;;;;;;;;11.40;39.80;;;;;;5053350;27;74742;-73
2021/04/04 07:10:38;;;;;;;;;;;11.40;40.00;;;;;;5055566;28;74498;-73
2021/04/04 07:13:22;;;;;;;;;;;11.50;39.60;;;;;;5053487;28;75488;-73
2021/04/04 07:16:00;;;;;;;;;;;11.50;39.40;;;;;;5055064;28;74490;-73
2021/04/04 07:18:44;;;;;;;;;;;11.60;39.60;;;;;;5053740;28;75997;-73
2021/04/04 07:21:28;;;;;;;;;;;11.60;39.60;;;;;;5055893;27;74386;-75
2021/04/04 07:24:12;;;;;;;;;;;11.70;39.20;;;;;;5054253;28;77438;-73
2021/04/04 07:26:56;;;;;;;;;;;11.70;39.40;;;;;;5055268;27;75203;-73
2021/04/04 07:29:41;;;;;;;;;;;11.70;39.30;;;;;;5054969;27;75808;-73
2021/04/04 07:32:12;;;;;;;;;;;11.80;39.00;;;;;;5056106;27;75083;-76
2021/04/04 07:34:56;;;;;;;;;;;11.90;38.80;;;;;;5053639;28;77675;-75
2021/04/04 07:37:35;;;;;;;;;;;11.90;38.70;;;;;;5054751;28;75591;-74
2021/04/04 07:40:04;;;;;;;;;;;11.90;39.20;;;;;;5054954;27;74535;-73
2021/04/04 07:42:37;;;;;;;;;;;12.00;38.60;;;;;;5054567;27;75332;-75
2021/04/04 07:45:09;;;;;;;;;;;12.10;38.80;;;;;;5053256;28;75677;-73
2021/04/04 07:47:37;;;;;;;;;;;12.20;38.40;;;;;;5053353;28;74691;-74
2021/04/04 07:50:10;;;;;;;;;;;12.20;38.40;;;;;;5053136;28;76371;-74
2021/04/04 07:52:39;;;;;;;;;;;12.30;38.40;;;;;;5052719;28;77160;-74
2021/04/04 07:55:04;;;;;;;;;;;12.40;38.50;;;;;;5054738;28;75157;-74
2021/04/04 07:57:38;;;;;;;;;;;12.40;38.40;;;;;;5052921;28;77582;-74
2021/04/04 08:00:07;;;;;;;;;;;12.50;38.20;;;;;;5053158;28;77435;-75
2021/04/04 08:02:53;;;;;;;;;;;12.50;38.10;;;;;;5054864;28;74545;-75
2021/04/04 08:05:21;;;;;;;;;;;12.60;38.50;;;;;;5031389;28;74815;-75
2021/04/04 08:07:58;;;;;;;;;;;12.80;38.50;;;;;;5054178;28;75177;-76
2021/04/04 08:10:47;;;;;;;;;;;12.90;38.40;;;;;;5054281;28;75242;-75
2021/04/04 08:13:21;;;;;;;;;;;12.90;38.10;;;;;;5048076;27;75559;-76
2021/04/04 08:15:47;;;;;;;;;;;13.00;38.20;;;;;;5055345;28;74510;-76
2021/04/04 08:18:13;;;;;;;;;;;13.10;38.20;;;;;;5053177;28;77366;-76
2021/04/04 08:20:54;;;;;;;;;;;13.20;38.30;;;;;;5051778;27;76780;-73
2021/04/04 08:23:25;;;;;;;;;;;13.30;38.50;;;;;;5052615;28;75774;-75
2021/04/04 08:25:57;;;;;;;;;;;13.40;38.70;;;;;;5052636;28;75665;-74
2021/04/04 08:28:42;;;;;;;;;;;13.50;38.40;;;;;;5052430;28;77425;-74
2021/04/04 08:31:19;;;;;;;;;;;13.60;38.50;;;;;;5068938;27;74661;-74
2021/04/04 08:33:47;;;;;;;;;;;13.70;38.40;;;;;;5052016;28;77378;-74
2021/04/04 08:36:21;;;;;;;;;;;13.70;38.50;;;;;;5051904;28;77360;-73
2021/04/04 08:38:48;;;;;;;;;;;13.80;38.60;;;;;;5052471;28;75743;-75
2021/04/04 08:41:14;;;;;;;;;;;13.90;38.60;;;;;;5053648;28;75212;-73
2021/04/04 08:43:45;;;;;;;;;;;14.00;38.60;;;;;;5054002;28;75811;-74
2021/04/04 08:46:19;;;;;;;;;;;14.10;38.90;;;;;;5053927;28;74686;-74
2021/04/04 08:48:45;;;;;;;;;;;14.10;38.40;;;;;;5051705;28;76861;-76
2021/04/04 08:51:12;;;;;;;;;;;14.20;38.80;;;;;;5053705;28;75163;-73
2021/04/04 08:53:43;;;;;;;;;;;14.40;38.70;;;;;;5053386;28;75641;-75
2021/04/04 08:56:08;;;;;;;;;;;14.40;39.10;;;;;;5054070;28;74696;-76
2021/04/04 08:58:42;;;;;;;;;;;14.60;38.70;;;;;;5053459;28;75125;-73
2021/04/04 09:01:13;;;;;;;;;;;14.70;38.60;;;;;;5051540;28;76501;-73
2021/04/04 09:03:41;;;;;;;;;;;14.80;38.60;;;;;;5053501;28;75163;-73
2021/04/04 09:06:08;;;;;;;;;;;14.90;38.70;;;;;;5051770;28;75570;-73
2021/04/04 09:08:39;;;;;;;;;;;15.00;38.30;;;;;;5053434;28;75071;-73
2021/04/04 09:11:07;;;;;;;;;;;15.00;38.20;;;;;;5050812;28;95115;-75
2021/04/04 09:13:34;;;;;;;;;;;15.10;38.10;;;;;;5053432;28;75201;-74
2021/04/04 09:16:02;;;;;;;;;;;15.30;38.20;;;;;;5053894;28;74543;-74
2021/04/04 09:18:30;;;;;;;;;;;15.40;37.90;;;;;;5053154;28;74398;-73
2021/04/04 09:21:05;;;;;;;;;;;15.60;38.20;;;;;;5053008;28;74997;-74
2021/04/04 09:23:31;;;;;;;;;;;15.90;37.40;;;;;;5052446;28;75333;-72
2021/04/04 09:26:01;;;;;;;;;;;16.10;37.20;;;;;;5052735;28;75532;-73
2021/04/04 09:28:28;;;;;;;;;;;16.30;36.70;;;;;;5052661;28;75305;-72
2021/04/04 09:30:54;;;;;;;;;;;16.40;36.90;;;;;;5052483;27;76648;-74
2021/04/04 09:33:25;;;;;;;;;;;16.50;36.10;;;;;;5052812;28;75713;-74
2021/04/04 09:35:54;;;;;;;;;;;16.70;36.30;;;;;;5052801;28;74550;-75
2021/04/04 09:38:20;;;;;;;;;;;16.90;36.10;;;;;;5053088;28;74370;-72
2021/04/04 09:40:46;;;;;;;;;;;17.00;36.00;;;;;;5052983;28;75276;-72
2021/04/04 09:43:13;;;;;;;;;;;17.20;35.40;;;;;;5053106;28;75612;-72
2021/04/04 09:45:40;;;;;;;;;;;17.40;35.40;;;;;;5051347;28;78131;-73
2021/04/04 09:48:16;;;;;;;;;;;17.50;35.40;;;;;;5085139;27;77248;-72
2021/04/04 09:50:41;;;;;;;;;;;17.80;35.70;;;;;;5050813;28;77761;-72
2021/04/04 09:53:07;;;;;;;;;;;18.00;35.10;;;;;;5050689;28;78219;-72
2021/04/04 09:55:33;;;;;;;;;;;18.30;34.60;;;;;;5050936;28;77907;-72
2021/04/04 09:58:03;;;;;;;;;;;18.40;34.80;;;;;;5050714;28;74706;-71
2021/04/04 10:00:29;;;;;;;;;;;18.60;34.60;;;;;;5052514;28;75276;-73
2021/04/04 10:02:56;;;;;;;;;;;18.90;34.40;;;;;;5050360;28;76886;-73
2021/04/04 10:05:30;;;;;;;;;;;19.00;34.50;;;;;;5050693;28;77343;-73
2021/04/04 10:08:09;;;;;;;;;;;19.20;33.20;;;;;;5052588;28;75244;-72
2021/04/04 10:10:36;;;;;;;;;;;19.20;33.80;;;;;;5051956;28;75065;-74
2021/04/04 10:13:02;;;;;;;;;;;19.40;33.90;;;;;;5084368;27;77377;-74
2021/04/04 10:15:28;;;;;;;;;;;19.50;34.40;;;;;;5050755;28;76839;-73
2021/04/04 10:17:57;;;;;;;;;;;19.80;34.10;;;;;;5050734;28;77043;-73
2021/04/04 10:20:32;;;;;;;;;;;20.10;33.80;;;;;;5050668;28;75829;-72
2021/04/04 10:22:58;;;;;;;;;;;20.40;33.10;;;;;;5050362;28;77439;-74
2021/04/04 10:25:24;;;;;;;;;;;20.50;33.30;;;;;;5052717;28;74450;-75
2021/04/04 10:28:16;;;;;;;;;;;20.80;32.80;;;;;;5050678;28;76463;-73
2021/04/04 10:30:41;;;;;;;;;;;20.80;32.80;;;;;;5050545;27;74638;-72
2021/04/04 10:33:26;;;;;;;;;;;21.00;32.80;;;;;;5051916;28;74649;-72
2021/04/04 10:35:55;;;;;;;;;;;21.40;32.70;;;;;;5050408;28;77663;-75
2021/04/04 10:38:24;;;;;;;;;;;21.60;33.10;;;;;;5051714;28;75290;-73
2021/04/04 10:40:54;;;;;;;;;;;21.90;33.10;;;;;;5050576;28;77367;-73
2021/04/04 10:43:21;;;;;;;;;;;22.30;32.90;;;;;;5050444;27;76522;-72
2021/04/04 10:45:54;;;;;;;;;;;22.60;32.40;;;;;;5054424;28;76996;-73
2021/04/04 10:48:20;;;;;;;;;;;22.90;31.30;;;;;;5053887;28;78394;-73
2021/04/04 10:50:47;;;;;;;;;;;23.20;31.70;;;;;;5087799;27;74557;-74
2021/04/04 10:53:12;;;;;;;;;;;23.50;31.50;;;;;;5053675;28;75610;-73
2021/04/04 10:55:38;;;;;;;;;;;23.90;30.50;;;;;;5055118;28;75068;-74
2021/04/04 10:58:04;;;;;;;;;;;24.20;30.70;;;;;;5055344;28;75232;-75
2021/04/04 11:00:29;;;;;;;;;;;24.50;30.10;;;;;;5053225;28;77986;-74
2021/04/04 11:02:56;;;;;;;;;;;24.90;30.50;;;;;;5053823;28;77446;-73
2021/04/04 11:05:22;;;;;;;;;;;25.30;30.50;;;;;;5055888;28;74493;-73
2021/04/04 11:07:48;;;;;;;;;;;25.90;29.80;;;;;;5055256;28;75102;-74
2021/04/04 11:10:13;;;;;;;;;;;26.40;29.20;;;;;;5053712;28;76458;-73
2021/04/04 11:12:40;;;;;;;;;;;26.90;28.80;;;;;;5054666;28;75754;-73
2021/04/04 11:15:08;;;;;;;;;;;27.40;28.10;;;;;;5054698;27;74465;-74
2021/04/04 11:17:35;;;;;;;;;;;28.10;26.80;;;;;;5055100;28;74370;-73
2021/04/04 11:20:02;;;;;;;;;;;28.50;26.70;;;;;;5055155;28;75273;-74
2021/04/04 11:22:28;;;;;;;;;;;29.30;26.10;;;;;;5053154;28;75263;-73
2021/04/04 11:24:58;;;;;;;;;;;29.50;24.40;;;;;;5052898;28;75392;-73
2021/04/04 11:27:37;;;;;;;;;;;29.40;25.30;;;;;;5054890;28;75293;-74
2021/04/04 11:30:04;;;;;;;;;;;30.20;25.50;;;;;;5052982;28;78213;-74
2021/04/04 11:32:30;;;;;;;;;;;31.50;23.90;;;;;;5052950;28;77548;-74
2021/04/04 11:35:00;;;;;;;;;;;32.60;23.30;;;;;;5052849;28;77309;-74
2021/04/04 11:37:28;;;;;;;;;;;33.60;21.80;;;;;;5053838;28;76749;-75
2021/04/04 11:40:12;;;;;;;;;;;34.40;21.70;;;;;;5052917;28;77901;-75
2021/04/04 11:42:38;;;;;;;;;;;35.30;21.00;;;;;;5053219;28;74504;-73
2021/04/04 11:45:04;;;;;;;;;;;36.20;20.30;;;;;;5086780;27;77022;-72
2021/04/04 11:47:30;;;;;;;;;;;37.00;19.90;;;;;;5052960;28;77258;-73
2021/04/04 11:49:56;;;;;;;;;;;37.70;19.40;;;;;;5053060;28;74789;-74
2021/04/04 11:52:22;;;;;;;;;;;38.50;18.80;;;;;;5054317;28;74465;-74
2021/04/04 11:54:50;;;;;;;;;;;39.20;18.30;;;;;;5053361;27;75129;-74
2021/04/04 11:57:19;;;;;;;;;;;39.70;17.10;;;;;;5052414;28;77302;-73
2021/04/04 11:59:45;;;;;;;;;;;39.80;18.00;;;;;;5052850;28;75407;-76
2021/04/04 12:02:13;;;;;;;;;;;40.30;17.20;;;;;;5053085;28;77865;-75
2021/04/04 12:04:56;;;;;;;;;;;39.90;17.30;;;;;;5054068;28;76433;-74
2021/04/04 12:07:22;;;;;;;;;;;40.00;17.80;;;;;;5055350;28;74810;-74
2021/04/04 12:09:48;;;;;;;;;;;40.70;17.30;;;;;;5054869;28;75046;-75
2021/04/04 12:12:14;;;;;;;;;;;41.00;16.90;;;;;;5054344;28;75560;-75
2021/04/04 12:14:46;;;;;;;;;;;41.10;17.20;;;;;;5052853;28;76552;-74
2021/04/04 12:17:13;;;;;;;;;;;41.50;16.90;;;;;;5053061;28;74476;-73
2021/04/04 12:19:41;;;;;;;;;;;41.40;16.90;;;;;;5052484;28;77950;-74
2021/04/04 12:22:06;;;;;;;;;;;39.40;17.70;;;;;;5053886;28;74673;-74
2021/04/04 12:24:42;;;;;;;;;;;36.20;19.20;;;;;;5052406;28;74456;-74
2021/04/04 12:27:12;;;;;;;;;;;33.40;22.10;;;;;;5052177;28;75414;-74
2021/04/04 12:29:45;;;;;;;;;;;31.30;24.20;;;;;;5052077;28;75817;-73
2021/04/04 12:32:37;;;;;;;;;;;30.00;25.20;;;;;;5051924;28;77444;-74
2021/04/04 12:35:04;;;;;;;;;;;29.00;25.00;;;;;;5049955;28;74802;-74
2021/04/04 12:37:31;;;;;;;;;;;27.50;27.10;;;;;;5053714;28;75404;-73
2021/04/04 12:40:01;;;;;;;;;;;27.10;28.20;;;;;;5051924;28;75302;-73
2021/04/04 12:42:32;;;;;;;;;;;27.20;28.00;;;;;;5053574;28;75310;-75
2021/04/04 12:44:59;;;;;;;;;;;27.20;28.10;;;;;;5052442;28;75486;-73
2021/04/04 12:47:25;;;;;;;;;;;27.40;28.50;;;;;;5051987;28;78082;-73
2021/04/04 12:50:03;;;;;;;;;;;28.40;27.40;;;;;;5053213;28;74356;-72
2021/04/04 12:52:47;;;;;;;;;;;29.30;26.20;;;;;;5051767;28;77793;-73
2021/04/04 12:55:15;;;;;;;;;;;30.70;25.90;;;;;;5051877;28;77206;-73
2021/04/04 12:57:41;;;;;;;;;;;34.40;22.90;;;;;;5051480;28;77494;-73
2021/04/04 13:00:16;;;;;;;;;;;37.40;20.30;;;;;;5053268;27;77762;-75
2021/04/04 13:02:51;;;;;;;;;;;38.40;19.20;;;;;;5051383;28;79056;-74
2021/04/04 13:05:17;;;;;;;;;;;37.80;19.40;;;;;;5051996;28;78160;-75
2021/04/04 13:07:43;;;;;;;;;;;36.90;19.50;;;;;;5051238;27;76350;-73
2021/04/04 13:10:10;;;;;;;;;;;36.20;20.80;;;;;;5051819;28;78221;-75
2021/04/04 13:12:39;;;;;;;;;;;34.70;20.70;;;;;;5053074;28;75658;-73
2021/04/04 13:15:08;;;;;;;;;;;32.90;22.40;;;;;;5052862;28;75284;-74
2021/04/04 13:17:40;;;;;;;;;;;31.30;22.90;;;;;;5051806;28;77991;-74
2021/04/04 13:20:06;;;;;;;;;;;30.40;23.90;;;;;;5052898;28;75266;-74
2021/04/04 13:22:31;;;;;;;;;;;30.00;25.30;;;;;;5052719;28;75336;-74
2021/04/04 13:24:57;;;;;;;;;;;29.40;26.20;;;;;;5052701;27;75370;-73
2021/04/04 13:27:23;;;;;;;;;;;28.70;26.50;;;;;;5053118;28;75313;-74
2021/04/04 13:29:48;;;;;;;;;;;28.20;26.90;;;;;;5053009;28;75344;-74
2021/04/04 13:32:14;;;;;;;;;;;28.10;27.30;;;;;;5051356;28;75314;-75
2021/04/04 13:34:40;;;;;;;;;;;28.70;27.20;;;;;;5053135;28;75240;-77
2021/04/04 13:37:05;;;;;;;;;;;29.30;26.00;;;;;;5051172;28;74605;-75
2021/04/04 13:39:43;;;;;;;;;;;31.10;24.70;;;;;;5051195;28;78935;-75
2021/04/04 13:42:08;;;;;;;;;;;32.00;23.30;;;;;;5052769;28;75158;-74
2021/04/04 13:44:41;;;;;;;;;;;31.40;23.10;;;;;;5051832;28;77521;-74
2021/04/04 13:47:18;;;;;;;;;;;30.40;24.10;;;;;;5051176;28;76930;-73
2021/04/04 13:49:44;;;;;;;;;;;29.90;24.10;;;;;;5051447;28;77257;-74
2021/04/04 13:52:11;;;;;;;;;;;30.80;22.90;;;;;;5051316;28;78427;-75
2021/04/04 13:54:36;;;;;;;;;;;32.50;22.50;;;;;;5051447;28;78331;-74
2021/04/04 13:57:02;;;;;;;;;;;33.90;21.10;;;;;;5051150;28;77940;-74
2021/04/04 13:59:28;;;;;;;;;;;32.90;21.30;;;;;;5051368;28;76983;-74
2021/04/04 14:01:54;;;;;;;;;;;31.90;21.60;;;;;;5052911;28;74585;-75
2021/04/04 14:04:21;;;;;;;;;;;31.20;22.80;;;;;;5052453;28;74997;-73
2021/04/04 14:06:57;;;;;;;;;;;31.90;22.70;;;;;;5051102;28;77996;-75
2021/04/04 14:09:33;;;;;;;;;;;33.70;21.60;;;;;;5052538;28;75180;-75
2021/04/04 14:11:59;;;;;;;;;;;34.10;20.30;;;;;;5052438;28;75257;-74
2021/04/04 14:14:25;;;;;;;;;;;32.70;21.30;;;;;;5051283;28;76881;-73
2021/04/04 14:16:54;;;;;;;;;;;31.50;22.30;;;;;;5052783;28;75517;-74
2021/04/04 14:19:20;;;;;;;;;;;30.90;22.40;;;;;;5055251;27;75440;-74
2021/04/04 14:21:46;;;;;;;;;;;31.60;22.80;;;;;;5054469;28;78011;-73
2021/04/04 14:24:12;;;;;;;;;;;32.30;22.50;;;;;;5054308;28;78354;-74
2021/04/04 14:26:38;;;;;;;;;;;32.30;22.50;;;;;;5054699;28;77176;-74
2021/04/04 14:29:13;;;;;;;;;;;31.80;22.50;;;;;;5053886;28;78442;-73